createdAt,value
2022-12-11T00:02:06.767Z,100160.75
2022-12-11T00:04:33.199Z,100168.28
2022-12-11T00:06:59.645Z,100160.19
2022-12-11T00:09:26.022Z,100160.38
2022-12-11T00:11:52.651Z,100164.41
2022-12-11T00:14:19.026Z,100168.75
2022-12-11T00:16:47.680Z,100170.63
2022-12-11T00:19:14.008Z,100150.78
2022-12-11T00:21:40.337Z,100173.94
2022-12-11T00:24:06.959Z,100168.50
2022-12-11T00:26:33.476Z,100165.56
2022-12-11T00:28:59.869Z,100170.81
2022-12-11T00:31:26.359Z,100173.50
2022-12-11T00:33:52.725Z,100174.97
2022-12-11T00:36:21.820Z,100169.38
2022-12-11T00:38:49.778Z,100157.41
2022-12-11T00:41:17.124Z,100167.81
2022-12-11T00:43:43.761Z,100171.06
2022-12-11T00:46:10.658Z,100179.00
2022-12-11T00:48:37.325Z,100177.19
2022-12-11T00:51:03.919Z,100172.72
2022-12-11T00:53:30.458Z,100177.00
2022-12-11T00:55:57.038Z,100174.19
2022-12-11T00:58:23.721Z,100172.84
2022-12-11T01:00:50.092Z,100173.63
2022-12-11T01:06:56.077Z,100176.09
2022-12-11T01:09:41.069Z,100176.81
2022-12-11T01:12:07.381Z,100165.53
2022-12-11T01:14:33.711Z,100177.28
2022-12-11T01:17:00.095Z,100181.44
2022-12-11T01:19:26.485Z,100166.47
2022-12-11T01:21:52.856Z,100173.31
2022-12-11T01:24:19.304Z,100159.72
2022-12-11T01:26:45.708Z,100166.63
2022-12-11T01:29:12.067Z,100168.06
2022-12-11T01:31:38.674Z,100169.47
2022-12-11T01:34:05.014Z,100172.69
2022-12-11T01:36:31.355Z,100172.50
2022-12-11T01:38:58.037Z,100163.91
2022-12-11T01:41:24.431Z,100168.03
2022-12-11T01:44:04.921Z,100172.31
2022-12-11T01:46:33.724Z,100170.06
2022-12-11T01:49:02.991Z,100162.44
2022-12-11T01:51:33.065Z,100168.41
2022-12-11T01:54:06.100Z,100166.63
2022-12-11T01:56:35.408Z,100164.06
2022-12-11T01:59:07.234Z,100173.22
2022-12-11T02:01:42.484Z,100176.31
2022-12-11T02:04:10.867Z,100171.66
2022-12-11T02:06:48.808Z,100165.84
2022-12-11T02:09:18.945Z,100165.06
2022-12-11T02:12:16.275Z,100152.78
2022-12-11T02:15:04.954Z,100150.22
2022-12-11T02:18:10.248Z,100159.56
2022-12-11T02:20:43.794Z,100151.81
2022-12-11T02:23:13.180Z,100165.34
2022-12-11T02:26:10.753Z,100177.50
2022-12-11T02:28:48.738Z,100173.75
2022-12-11T02:31:34.529Z,100185.19
2022-12-11T02:34:02.986Z,100181.56
2022-12-11T02:36:35.520Z,100189.66
2022-12-11T02:39:04.371Z,100183.50
2022-12-11T02:41:33.602Z,100193.16
2022-12-11T02:44:02.972Z,100185.19
2022-12-11T02:46:30.806Z,100192.69
2022-12-11T02:48:58.245Z,100176.50
2022-12-11T02:51:34.332Z,100181.25
2022-12-11T02:54:02.225Z,100183.06
2022-12-11T02:56:40.632Z,100157.50
2022-12-11T02:59:13.850Z,100174.66
2022-12-11T03:01:40.331Z,100175.34
2022-12-11T03:04:06.793Z,100172.16
2022-12-11T03:06:37.401Z,100171.91
2022-12-11T03:09:05.523Z,100166.59
2022-12-11T03:11:31.883Z,100168.75
2022-12-11T03:13:59.753Z,100163.97
2022-12-11T03:16:35.649Z,100168.25
2022-12-11T03:19:12.608Z,100169.16
2022-12-11T03:21:55.462Z,100175.13
2022-12-11T03:24:52.653Z,100169.81
2022-12-11T03:27:28.045Z,100173.22
2022-12-11T03:30:00.493Z,100170.13
2022-12-11T03:32:38.423Z,100173.75
2022-12-11T03:35:27.396Z,100174.00
2022-12-11T03:37:58.202Z,100176.84
2022-12-11T03:40:26.105Z,100174.09
2022-12-11T03:42:55.815Z,100168.38
2022-12-11T03:45:24.609Z,100161.34
2022-12-11T03:47:53.655Z,100175.78
2022-12-11T03:50:21.836Z,100172.47
2022-12-11T03:52:49.627Z,100174.16
2022-12-11T03:55:19.329Z,100186.91
2022-12-11T03:57:45.696Z,100182.81
2022-12-11T04:00:16.355Z,100185.44
2022-12-11T04:02:43.433Z,100188.09
2022-12-11T04:05:11.780Z,100176.19
2022-12-11T04:07:38.263Z,100186.44
2022-12-11T04:10:05.770Z,100175.63
2022-12-11T04:12:32.180Z,100181.50
2022-12-11T04:15:05.022Z,100180.00
2022-12-11T04:17:54.950Z,100171.38
2022-12-11T04:20:40.659Z,100168.69
2022-12-11T04:23:31.192Z,100169.81
2022-12-11T04:26:08.729Z,100169.81
2022-12-11T04:28:35.536Z,100168.16
2022-12-11T04:31:02.003Z,100165.69
2022-12-11T04:33:28.676Z,100170.00
2022-12-11T04:35:58.477Z,100170.22
2022-12-11T04:38:25.244Z,100170.00
2022-12-11T04:41:01.465Z,100170.94
2022-12-11T04:43:28.271Z,100169.94
2022-12-11T04:46:09.560Z,100164.03
2022-12-11T04:48:36.334Z,100162.19
2022-12-11T04:51:03.164Z,100159.63
2022-12-11T04:53:29.691Z,100165.84
2022-12-11T04:55:56.302Z,100155.34
2022-12-11T04:58:24.634Z,100152.78
2022-12-11T05:00:51.786Z,100150.09
2022-12-11T05:03:18.492Z,100155.34
2022-12-11T05:05:50.544Z,100146.50
2022-12-11T05:08:21.001Z,100150.06
2022-12-11T05:11:02.184Z,100162.97
2022-12-11T05:13:30.031Z,100163.75
2022-12-11T05:15:56.939Z,100156.88
2022-12-11T05:18:23.654Z,100166.47
2022-12-11T05:21:01.714Z,100145.75
2022-12-11T05:23:28.324Z,100153.22
2022-12-11T05:25:56.466Z,100146.88
2022-12-11T05:28:24.965Z,100140.84
2022-12-11T05:30:58.719Z,100147.88
2022-12-11T05:33:25.640Z,100128.69
2022-12-11T05:35:52.682Z,100144.97
2022-12-11T05:38:19.598Z,100134.25
2022-12-11T05:40:59.081Z,100133.47
2022-12-11T05:43:28.111Z,100128.81
2022-12-11T05:45:54.819Z,100128.84
2022-12-11T05:48:21.355Z,100129.84
2022-12-11T05:50:58.553Z,100137.06
2022-12-11T05:53:25.147Z,100134.53
2022-12-11T05:55:51.466Z,100129.41
2022-12-11T05:58:18.326Z,100128.69
2022-12-11T06:00:44.703Z,100123.31
2022-12-11T06:03:11.246Z,100124.16
2022-12-11T06:05:42.160Z,100133.06
2022-12-11T06:08:08.995Z,100127.78
2022-12-11T06:10:35.454Z,100125.94
2022-12-11T06:13:01.791Z,100130.63
2022-12-11T06:15:28.121Z,100131.56
2022-12-11T06:17:54.500Z,100129.72
2022-12-11T06:20:20.813Z,100126.22
2022-12-11T06:22:47.325Z,100123.75
2022-12-11T06:25:13.964Z,100119.41
2022-12-11T06:27:40.418Z,100121.19
2022-12-11T06:30:07.940Z,100109.41
2022-12-11T06:32:34.264Z,100113.78
2022-12-11T06:35:00.608Z,100117.53
2022-12-11T06:37:26.907Z,100119.06
2022-12-11T06:39:53.218Z,100113.03
2022-12-11T06:42:19.577Z,100116.44
2022-12-11T06:44:45.853Z,100108.78
2022-12-11T06:47:12.307Z,100112.63
2022-12-11T06:49:38.611Z,100113.09
2022-12-11T06:52:06.206Z,100108.13
2022-12-11T06:54:32.563Z,100119.84
2022-12-11T06:56:58.883Z,100113.41
2022-12-11T06:59:25.210Z,100116.81
2022-12-11T07:01:51.646Z,100117.47
2022-12-11T07:04:18.036Z,100112.25
2022-12-11T07:06:44.323Z,100113.00
2022-12-11T07:09:11.014Z,100108.84
2022-12-11T07:11:37.340Z,100118.94
2022-12-11T07:14:03.679Z,100106.88
2022-12-11T07:16:30.016Z,100126.16
2022-12-11T07:18:56.394Z,100110.91
2022-12-11T07:21:23.066Z,100122.72
2022-12-11T07:23:50.578Z,100133.19
2022-12-11T07:26:19.591Z,100134.03
2022-12-11T07:28:46.432Z,100134.97
2022-12-11T07:31:15.688Z,100133.88
2022-12-11T07:33:43.214Z,100133.88
2022-12-11T07:36:11.771Z,100131.47
2022-12-11T07:38:38.461Z,100135.03
2022-12-11T07:41:08.451Z,100143.38
2022-12-11T07:43:35.932Z,100136.41
2022-12-11T07:46:08.732Z,100136.09
2022-12-11T07:48:36.723Z,100136.91
2022-12-11T07:51:17.200Z,100144.56
2022-12-11T07:53:45.590Z,100148.13
2022-12-11T07:56:12.296Z,100158.50
2022-12-11T07:58:38.913Z,100152.09
2022-12-11T08:01:06.613Z,100154.81
2022-12-11T08:06:29.265Z,100148.06
2022-12-11T08:08:57.328Z,100141.25
2022-12-11T08:11:24.843Z,100145.84
2022-12-11T08:13:51.167Z,100131.19
2022-12-11T08:16:18.400Z,100135.47
2022-12-11T08:18:46.684Z,100141.50
2022-12-11T08:21:18.836Z,100145.13
2022-12-11T08:23:46.031Z,100146.78
2022-12-11T08:26:31.676Z,100163.84
2022-12-11T08:28:58.733Z,100156.94
2022-12-11T08:31:25.219Z,100165.44
2022-12-11T08:33:52.522Z,100164.34
2022-12-11T08:36:21.328Z,100166.19
2022-12-11T08:38:47.943Z,100167.72
2022-12-11T08:41:20.080Z,100170.03
2022-12-11T08:43:46.906Z,100160.50
2022-12-11T08:46:13.671Z,100169.50
2022-12-11T08:48:41.837Z,100158.06
2022-12-11T08:51:12.161Z,100156.03
2022-12-11T08:53:39.468Z,100153.59
2022-12-11T08:56:08.483Z,100156.19
2022-12-11T08:58:35.706Z,100148.06
2022-12-11T09:01:07.492Z,100155.03
2022-12-11T09:03:33.958Z,100149.72
2022-12-11T09:06:00.359Z,100154.19
2022-12-11T09:08:26.721Z,100143.53
2022-12-11T09:10:53.080Z,100127.34
2022-12-11T09:13:19.423Z,100139.34
2022-12-11T09:15:45.788Z,100138.44
2022-12-11T09:18:12.255Z,100137.91
2022-12-11T09:20:38.556Z,100139.25
2022-12-11T09:23:04.896Z,100141.09
2022-12-11T09:25:31.272Z,100137.34
2022-12-11T09:27:57.653Z,100139.13
2022-12-11T09:30:24.011Z,100135.75
2022-12-11T09:32:51.304Z,100149.88
2022-12-11T09:35:17.743Z,100141.81
2022-12-11T09:37:44.060Z,100138.94
2022-12-11T09:40:12.201Z,100138.06
2022-12-11T09:42:53.467Z,100138.91
2022-12-11T09:45:20.515Z,100135.88
2022-12-11T09:47:54.300Z,100136.47
2022-12-11T09:50:39.502Z,100128.09
2022-12-11T09:53:14.832Z,100128.72
2022-12-11T09:55:59.944Z,100134.19
2022-12-11T09:58:39.077Z,100136.13
2022-12-11T10:01:10.170Z,100129.44
2022-12-11T10:03:42.884Z,100136.47
2022-12-11T10:06:18.035Z,100128.66
2022-12-11T10:08:47.699Z,100129.72
2022-12-11T10:12:05.341Z,100129.78
2022-12-11T10:14:59.363Z,100128.09
2022-12-11T10:17:30.763Z,100113.22
2022-12-11T10:20:05.260Z,100117.56
2022-12-11T10:22:33.169Z,100127.66
2022-12-11T10:25:10.830Z,100129.72
2022-12-11T10:27:39.893Z,100100.22
2022-12-11T10:30:28.348Z,100123.81
2022-12-11T10:33:14.149Z,100125.91
2022-12-11T10:35:48.745Z,100109.63
2022-12-11T10:38:20.483Z,100119.19
2022-12-11T10:40:51.250Z,100100.88
2022-12-11T10:43:17.627Z,100103.91
2022-12-11T10:45:52.491Z,100098.59
2022-12-11T10:48:18.840Z,100105.09
2022-12-11T10:50:55.491Z,100099.56
2022-12-11T10:53:22.251Z,100089.41
2022-12-11T10:55:49.139Z,100084.09
2022-12-11T10:58:22.223Z,100083.16
2022-12-11T11:01:05.968Z,100087.25
2022-12-11T11:03:33.397Z,100075.50
2022-12-11T11:06:17.519Z,100082.50
2022-12-11T11:08:47.248Z,100084.38
2022-12-11T11:11:26.994Z,100073.16
2022-12-11T11:14:12.119Z,100068.38
2022-12-11T11:16:40.316Z,100068.25
2022-12-11T11:19:07.206Z,100072.75
2022-12-11T11:21:35.004Z,100076.63
2022-12-11T11:24:01.381Z,100067.31
2022-12-11T11:26:56.702Z,100077.22
2022-12-11T11:29:28.917Z,100067.94
2022-12-11T11:31:55.232Z,100068.38
2022-12-11T11:34:22.212Z,100055.38
2022-12-11T11:37:00.825Z,100068.63
2022-12-11T11:39:39.464Z,100057.56
2022-12-11T11:42:27.691Z,100058.31
2022-12-11T11:45:10.023Z,100052.28
2022-12-11T11:47:45.086Z,100046.53
2022-12-11T11:50:22.042Z,100048.97
2022-12-11T11:52:55.767Z,100050.19
2022-12-11T11:55:51.846Z,100043.13
2022-12-11T11:58:39.063Z,100042.28
2022-12-11T12:01:12.623Z,100045.56
2022-12-11T12:03:38.970Z,100046.25
2022-12-11T12:06:48.986Z,100037.19
2022-12-11T12:09:49.178Z,100048.88
2022-12-11T12:12:41.565Z,100038.88
2022-12-11T12:15:25.642Z,100042.38
2022-12-11T12:17:57.627Z,100044.16
2022-12-11T12:20:42.744Z,100047.25
2022-12-11T12:23:36.703Z,100048.72
2022-12-11T12:26:11.102Z,100038.44
2022-12-11T12:29:08.588Z,100038.88
2022-12-11T12:31:34.890Z,100038.09
2022-12-11T12:34:24.776Z,100038.63
2022-12-11T12:37:21.799Z,100025.94
2022-12-11T12:40:03.104Z,100029.66
2022-12-11T12:42:50.825Z,100033.53
2022-12-11T12:45:43.277Z,100042.38
2022-12-11T12:48:10.019Z,100041.06
2022-12-11T12:50:47.531Z,100027.50
2022-12-11T12:53:24.651Z,100034.31
2022-12-11T12:55:51.627Z,100035.69
2022-12-11T12:58:39.095Z,100031.97
2022-12-11T13:01:14.921Z,100039.00
2022-12-11T13:04:03.240Z,100036.91
2022-12-11T13:06:34.159Z,100040.66
2022-12-11T13:09:23.452Z,100032.28
2022-12-11T13:11:57.836Z,100034.75
2022-12-11T13:14:30.977Z,100031.03
2022-12-11T13:17:21.954Z,100033.31
2022-12-11T13:19:50.440Z,100031.25
2022-12-11T13:22:21.370Z,100039.84
2022-12-11T13:25:16.434Z,100038.31
2022-12-11T13:27:43.542Z,100037.63
2022-12-11T13:30:16.262Z,100034.44
2022-12-11T13:32:49.433Z,100034.19
2022-12-11T13:35:18.125Z,100028.41
2022-12-11T13:37:46.341Z,100032.22
2022-12-11T13:40:19.839Z,100038.25
2022-12-11T13:42:53.758Z,100022.81
2022-12-11T13:49:06.821Z,100037.25
2022-12-11T13:51:37.850Z,100033.75
2022-12-11T13:54:25.459Z,100030.28
2022-12-11T13:57:07.153Z,100030.06
2022-12-11T13:59:35.966Z,100027.03
2022-12-11T14:02:25.422Z,100040.50
2022-12-11T14:04:59.177Z,100034.38
2022-12-11T14:07:31.821Z,100043.59
2022-12-11T14:10:17.835Z,100038.34
2022-12-11T14:12:48.273Z,100043.81
2022-12-11T14:15:15.568Z,100043.97
2022-12-11T14:17:48.485Z,100047.53
2022-12-11T14:20:22.081Z,100045.13
2022-12-11T14:22:48.681Z,100047.84
2022-12-11T14:25:24.729Z,100041.06
2022-12-11T14:27:54.221Z,100047.16
2022-12-11T14:30:27.350Z,100052.56
2022-12-11T14:32:58.161Z,100050.56
2022-12-11T14:35:39.264Z,100058.94
2022-12-11T14:38:16.728Z,100052.28
2022-12-11T14:40:46.915Z,100061.41
2022-12-11T14:43:48.097Z,100066.09
2022-12-11T14:46:21.925Z,100065.16
2022-12-11T14:49:00.546Z,100055.16
2022-12-11T14:51:33.729Z,100066.38
2022-12-11T14:54:00.705Z,100068.38
2022-12-11T14:56:30.079Z,100063.44
2022-12-11T14:59:02.531Z,100057.25
2022-12-11T15:01:34.258Z,100078.63
2022-12-11T15:04:15.746Z,100069.94
2022-12-11T15:06:47.772Z,100070.56
2022-12-11T15:09:36.138Z,100067.78
2022-12-11T15:12:19.870Z,100064.59
2022-12-11T15:14:53.252Z,100062.91
2022-12-11T15:17:20.602Z,100064.06
2022-12-11T15:20:31.386Z,100065.72
2022-12-11T15:23:01.535Z,100077.22
2022-12-11T15:25:51.748Z,100073.59
2022-12-11T15:28:47.194Z,100068.84
2022-12-11T15:31:27.565Z,100072.13
2022-12-11T15:33:54.082Z,100071.44
2022-12-11T15:36:30.693Z,100069.19
2022-12-11T15:38:57.751Z,100069.97
2022-12-11T15:41:25.122Z,100065.75
2022-12-11T15:43:58.892Z,100079.84
2022-12-11T15:46:26.164Z,100073.75
2022-12-11T15:48:52.687Z,100058.88
2022-12-11T15:51:19.195Z,100078.03
2022-12-11T15:53:45.546Z,100079.56
2022-12-11T15:56:16.306Z,100079.78
2022-12-11T15:58:44.709Z,100078.63
2022-12-11T16:01:11.169Z,100081.09
2022-12-11T16:03:37.499Z,100082.84
2022-12-11T16:06:04.206Z,100081.09
2022-12-11T16:08:30.635Z,100094.53
2022-12-11T16:10:57.102Z,100091.97
2022-12-11T16:13:23.669Z,100089.53
2022-12-11T16:15:51.304Z,100090.41
2022-12-11T16:18:21.469Z,100084.44
2022-12-11T16:20:48.747Z,100082.75
2022-12-11T16:23:17.086Z,100078.44
2022-12-11T16:25:45.308Z,100081.81
2022-12-11T16:28:13.766Z,100076.75
2022-12-11T16:30:40.302Z,100078.31
2022-12-11T16:33:11.992Z,100075.91
2022-12-11T16:35:39.738Z,100080.09
2022-12-11T16:38:06.113Z,100076.47
2022-12-11T16:40:32.494Z,100070.13
2022-12-11T16:42:58.852Z,100070.03
2022-12-11T16:45:26.269Z,100072.75
2022-12-11T16:47:53.097Z,100064.91
2022-12-11T16:50:19.624Z,100058.31
2022-12-11T16:52:46.090Z,100061.75
2022-12-11T16:55:13.095Z,100063.91
2022-12-11T16:57:40.373Z,100073.53
2022-12-11T17:00:08.899Z,100067.16
2022-12-11T17:02:36.234Z,100078.53
2022-12-11T17:05:02.648Z,100062.53
2022-12-11T17:07:29.112Z,100080.72
2022-12-11T17:09:55.415Z,100062.97
2022-12-11T17:12:27.418Z,100076.94
2022-12-11T17:14:54.878Z,100077.84
2022-12-11T17:17:21.419Z,100062.53
2022-12-11T17:19:47.738Z,100066.22
2022-12-11T17:22:14.143Z,100055.63
2022-12-11T17:24:40.499Z,100062.59
2022-12-11T17:27:07.019Z,100053.97
2022-12-11T17:29:33.478Z,100056.53
2022-12-11T17:31:59.969Z,100046.78
2022-12-11T17:34:26.274Z,100060.47
2022-12-11T17:36:52.572Z,100059.41
2022-12-11T17:39:18.921Z,100056.78
2022-12-11T17:41:45.352Z,100060.25
2022-12-11T17:44:12.650Z,100052.44
2022-12-11T17:46:39.311Z,100060.34
2022-12-11T17:49:06.000Z,100067.31
2022-12-11T17:51:32.302Z,100071.97
2022-12-11T17:53:58.827Z,100066.69
2022-12-11T17:56:25.967Z,100070.34
2022-12-11T17:58:52.369Z,100059.97
2022-12-11T18:01:19.045Z,100064.22
2022-12-11T18:03:45.650Z,100066.84
2022-12-11T18:06:14.962Z,100059.03
2022-12-11T18:08:42.439Z,100070.34
2022-12-11T18:11:11.909Z,100064.84
2022-12-11T18:13:38.641Z,100061.41
2022-12-11T18:16:12.913Z,100059.25
2022-12-11T18:18:39.726Z,100059.03
2022-12-11T18:21:06.416Z,100054.16
2022-12-11T18:23:33.406Z,100058.47
2022-12-11T18:26:00.474Z,100061.59
2022-12-11T18:28:26.869Z,100068.56
2022-12-11T18:30:53.347Z,100066.84
2022-12-11T18:33:19.755Z,100064.31
2022-12-11T18:35:49.292Z,100065.16
2022-12-11T18:38:16.280Z,100062.44
2022-12-11T18:40:42.676Z,100063.13
2022-12-11T18:43:09.156Z,100065.00
2022-12-11T18:45:35.513Z,100065.84
2022-12-11T18:48:01.890Z,100071.50
2022-12-11T18:50:28.244Z,100072.13
2022-12-11T18:52:55.165Z,100070.03
2022-12-11T18:55:21.621Z,100065.75
2022-12-11T18:57:48.019Z,100069.28
2022-12-11T19:00:14.876Z,100065.69
2022-12-11T19:02:41.226Z,100055.22
2022-12-11T19:05:07.959Z,100074.47
2022-12-11T19:07:34.278Z,100059.63
2022-12-11T19:10:00.684Z,100059.50
2022-12-11T19:12:27.023Z,100062.81
2022-12-11T19:14:53.386Z,100070.88
2022-12-11T19:17:19.789Z,100057.47
2022-12-11T19:19:47.274Z,100065.63
2022-12-11T19:22:14.897Z,100050.78
2022-12-11T19:24:41.280Z,100054.75
2022-12-11T19:27:13.256Z,100046.94
2022-12-11T19:29:40.113Z,100052.66
2022-12-11T19:32:06.581Z,100057.63
2022-12-11T19:34:32.975Z,100056.69
2022-12-11T19:36:59.484Z,100056.63
2022-12-11T19:39:26.225Z,100030.28
2022-12-11T19:41:52.589Z,100042.75
2022-12-11T19:44:20.062Z,100047.94
2022-12-11T19:46:46.661Z,100049.03
2022-12-11T19:49:13.196Z,100042.84
2022-12-11T19:51:41.573Z,100046.72
2022-12-11T19:54:11.534Z,100051.72
2022-12-11T19:56:38.117Z,100051.91
2022-12-11T19:59:06.633Z,100050.50
2022-12-11T20:01:35.515Z,100041.66
2022-12-11T20:04:07.521Z,100060.56
2022-12-11T20:06:36.777Z,100055.84
2022-12-11T20:09:05.278Z,100060.44
2022-12-11T20:11:33.184Z,100053.91
2022-12-11T20:13:59.893Z,100050.13
2022-12-11T20:16:46.205Z,100044.06
2022-12-11T20:19:12.824Z,100058.69
2022-12-11T20:21:39.163Z,100057.63
2022-12-11T20:24:05.780Z,100061.81
2022-12-11T20:26:35.824Z,100055.09
2022-12-11T20:29:05.183Z,100064.84
2022-12-11T20:31:31.588Z,100065.38
2022-12-11T20:33:58.105Z,100062.91
2022-12-11T20:36:25.805Z,100068.72
2022-12-11T20:38:53.190Z,100068.63
2022-12-11T20:41:21.965Z,100043.91
2022-12-11T20:43:53.193Z,100059.88
2022-12-11T20:46:22.134Z,100062.44
2022-12-11T20:48:48.971Z,100063.38
2022-12-11T20:51:23.862Z,100061.19
2022-12-11T20:53:57.490Z,100051.50
2022-12-11T20:56:26.945Z,100054.91
2022-12-11T20:58:54.501Z,100056.78
2022-12-11T21:01:23.951Z,100052.66
2022-12-11T21:03:52.157Z,100060.91
2022-12-11T21:06:30.911Z,100054.06
2022-12-11T21:08:59.613Z,100051.44
2022-12-11T21:11:26.804Z,100064.31
2022-12-11T21:13:53.658Z,100048.50
2022-12-11T21:16:20.948Z,100051.13
2022-12-11T21:18:48.191Z,100051.69
2022-12-11T21:21:15.494Z,100056.41
2022-12-11T21:23:41.876Z,100053.31
2022-12-11T21:26:08.363Z,100053.38
2022-12-11T21:28:35.691Z,100050.13
2022-12-11T21:31:05.539Z,100058.09
2022-12-11T21:33:31.932Z,100048.31
2022-12-11T21:35:59.561Z,100053.84
2022-12-11T21:38:26.538Z,100048.56
2022-12-11T21:40:54.186Z,100053.03
2022-12-11T21:43:20.895Z,100059.13
2022-12-11T21:46:02.851Z,100054.22
2022-12-11T21:48:29.262Z,100064.38
2022-12-11T21:50:55.973Z,100060.91
2022-12-11T21:53:22.277Z,100057.63
2022-12-11T21:55:48.599Z,100062.75
2022-12-11T21:58:15.582Z,100071.44
2022-12-11T22:00:42.628Z,100072.13
2022-12-11T22:03:08.952Z,100064.31
2022-12-11T22:05:35.261Z,100066.38
2022-12-11T22:08:02.245Z,100061.81
2022-12-11T22:10:28.983Z,100069.69
2022-12-11T22:12:55.374Z,100071.44
2022-12-11T22:15:21.858Z,100071.47
2022-12-11T22:17:48.504Z,100057.00
2022-12-11T22:20:14.835Z,100071.84
2022-12-11T22:22:41.279Z,100071.84
2022-12-11T22:25:08.023Z,100080.47
2022-12-11T22:27:34.737Z,100079.63
2022-12-11T22:30:01.017Z,100079.16
2022-12-11T22:32:27.686Z,100070.88
2022-12-11T22:34:56.131Z,100075.78
2022-12-11T22:37:22.474Z,100079.00
2022-12-11T22:39:48.812Z,100076.38
2022-12-11T22:42:15.472Z,100076.84
2022-12-11T22:44:41.818Z,100072.78
2022-12-11T22:47:08.143Z,100068.63
2022-12-11T22:49:35.706Z,100072.09
2022-12-11T22:52:02.072Z,100077.69
2022-12-11T22:54:28.430Z,100069.88
2022-12-11T22:56:54.739Z,100076.91
2022-12-11T22:59:22.713Z,100081.03
2022-12-11T23:01:49.309Z,100070.56
2022-12-11T23:04:15.677Z,100069.66
2022-12-11T23:06:42.010Z,100075.59
2022-12-11T23:09:08.427Z,100061.66
2022-12-11T23:11:37.043Z,100070.16
2022-12-11T23:14:05.143Z,100088.56
2022-12-11T23:16:31.531Z,100075.44
2022-12-11T23:18:58.540Z,100077.16
2022-12-11T23:21:27.183Z,100085.13
2022-12-11T23:23:53.981Z,100082.75
2022-12-11T23:26:21.459Z,100076.69
2022-12-11T23:28:48.281Z,100079.00
2022-12-11T23:31:15.704Z,100074.00
2022-12-11T23:33:42.214Z,100079.38
2022-12-11T23:36:09.574Z,100076.63
2022-12-11T23:38:36.312Z,100078.00
2022-12-11T23:41:04.264Z,100081.78
2022-12-11T23:43:31.137Z,100080.94
2022-12-11T23:45:57.750Z,100080.66
2022-12-11T23:48:24.480Z,100086.50
2022-12-11T23:50:51.285Z,100089.00
2022-12-11T23:53:17.705Z,100089.78
2022-12-11T23:55:45.214Z,100089.72
2022-12-11T23:58:11.770Z,100096.50
